createdAt,value
2019-03-09T00:03:18.422Z,54.10
2019-03-09T00:08:23.920Z,54.00
2019-03-09T00:13:29.404Z,54.20
2019-03-09T00:18:34.407Z,54.40
2019-03-09T00:24:09.229Z,54.70
2019-03-09T00:29:35.430Z,55.20
2019-03-09T00:34:40.607Z,55.60
2019-03-09T00:39:45.753Z,55.40
2019-03-09T00:44:50.697Z,55.60
2019-03-09T00:49:55.532Z,55.30
2019-03-09T00:55:00.588Z,55.20
2019-03-09T01:00:10.305Z,55.50
2019-03-09T01:05:15.715Z,55.40
2019-03-09T01:10:20.569Z,55.60
2019-03-09T01:15:25.429Z,55.60
2019-03-09T01:20:30.455Z,55.40
2019-03-09T01:25:35.431Z,55.60
2019-03-09T01:30:40.547Z,55.00
2019-03-09T01:35:46.872Z,55.00
2019-03-09T01:40:50.243Z,54.90
2019-03-09T01:45:53.475Z,54.90
2019-03-09T01:50:56.803Z,54.20
2019-03-09T01:56:00.104Z,54.30
2019-03-09T02:01:03.570Z,53.90
2019-03-09T02:06:07.904Z,54.10
2019-03-09T02:11:12.748Z,54.40
2019-03-09T02:16:18.728Z,54.60
2019-03-09T02:21:22.885Z,54.30
2019-03-09T02:26:26.957Z,54.50
2019-03-09T02:31:31.121Z,54.30
2019-03-09T02:36:35.425Z,55.30
2019-03-09T02:41:39.356Z,54.60
2019-03-09T02:46:44.052Z,55.30
2019-03-09T02:51:47.888Z,55.50
2019-03-09T02:56:52.032Z,55.70
2019-03-09T03:02:08.679Z,55.90
2019-03-09T03:07:12.741Z,56.20
2019-03-09T03:12:17.809Z,56.40
2019-03-09T03:17:22.744Z,56.60
2019-03-09T03:22:27.666Z,56.90
2019-03-09T03:27:32.496Z,57.60
2019-03-09T03:32:37.565Z,55.80
2019-03-09T03:37:42.469Z,56.40
2019-03-09T03:42:47.527Z,57.10
2019-03-09T03:47:52.450Z,57.20
2019-03-09T03:52:57.375Z,56.30
2019-03-09T03:58:03.685Z,57.00
2019-03-09T04:03:08.606Z,57.10
2019-03-09T04:08:13.259Z,56.70
2019-03-09T04:13:18.254Z,59.50
2019-03-09T04:18:23.215Z,61.80
2019-03-09T04:23:27.982Z,62.50
2019-03-09T04:28:33.018Z,62.70
2019-03-09T04:33:37.830Z,63.30
2019-03-09T04:38:42.781Z,64.10
2019-03-09T04:43:47.791Z,65.20
2019-03-09T04:48:52.897Z,65.50
2019-03-09T04:53:57.757Z,66.50
2019-03-09T04:59:01.714Z,66.70
2019-03-09T05:04:42.281Z,67.00
2019-03-09T05:10:15.873Z,66.90
2019-03-09T05:15:20.733Z,67.20
2019-03-09T05:20:25.774Z,68.00
2019-03-09T05:25:30.731Z,68.70
2019-03-09T05:30:40.309Z,69.30
2019-03-09T05:35:45.924Z,69.50
2019-03-09T05:40:50.771Z,69.90
2019-03-09T05:45:55.784Z,70.10
2019-03-09T05:51:00.842Z,71.00
2019-03-09T05:56:05.497Z,71.50
2019-03-09T06:01:09.717Z,71.60
2019-03-09T06:06:15.745Z,72.10
2019-03-09T06:11:19.937Z,72.70
2019-03-09T06:16:24.171Z,72.70
2019-03-09T06:21:28.841Z,73.30
2019-03-09T06:26:32.705Z,73.80
2019-03-09T06:31:37.319Z,74.70
2019-03-09T06:37:06.303Z,75.60
2019-03-09T06:42:47.019Z,76.10
2019-03-09T06:47:52.455Z,77.00
2019-03-09T06:52:57.540Z,77.60
2019-03-09T06:58:02.807Z,78.70
2019-03-09T07:03:09.286Z,79.30
2019-03-09T07:08:14.345Z,80.10
2019-03-09T07:13:19.527Z,80.60
2019-03-09T07:18:33.835Z,80.70
2019-03-09T07:23:39.060Z,81.80
2019-03-09T07:28:44.182Z,81.50
2019-03-09T07:34:11.551Z,82.00
2019-03-09T07:39:16.781Z,85.00
2019-03-09T07:44:22.278Z,85.00
2019-03-09T07:49:28.072Z,83.70
2019-03-09T07:54:33.975Z,82.90
2019-03-09T07:59:39.205Z,82.60
2019-03-09T08:04:45.788Z,81.50
2019-03-09T08:09:51.202Z,80.30
2019-03-09T08:14:56.907Z,79.50
2019-03-09T08:20:01.954Z,77.20
2019-03-09T08:25:09.279Z,76.10
2019-03-09T08:30:24.187Z,75.80
2019-03-09T08:35:29.437Z,75.30
2019-03-09T08:40:34.779Z,74.20
2019-03-09T08:45:40.346Z,75.90
2019-03-09T08:50:45.649Z,77.10
2019-03-09T08:55:50.720Z,78.10
2019-03-09T09:00:56.620Z,78.00
2019-03-09T09:06:02.723Z,77.50
2019-03-09T09:11:08.004Z,78.60
2019-03-09T09:16:13.865Z,78.60
2019-03-09T09:21:18.269Z,79.20
2019-03-09T09:26:23.192Z,78.70
2019-03-09T09:31:27.350Z,78.30
2019-03-09T09:36:32.247Z,76.50
2019-03-09T09:41:37.009Z,73.60
2019-03-09T09:46:41.453Z,72.70
2019-03-09T09:51:45.675Z,72.10
2019-03-09T09:56:50.695Z,72.70
2019-03-09T10:01:54.628Z,71.50
2019-03-09T10:06:59.590Z,71.70
2019-03-09T10:12:06.026Z,71.50
2019-03-09T10:17:11.386Z,71.10
2019-03-09T10:22:16.501Z,70.90
2019-03-09T10:27:21.511Z,69.40
2019-03-09T10:32:27.021Z,69.80
2019-03-09T10:37:32.025Z,69.40
2019-03-09T10:42:37.502Z,68.90
2019-03-09T10:47:43.613Z,68.30
2019-03-09T10:52:48.957Z,67.30
2019-03-09T10:57:55.245Z,67.50
2019-03-09T11:03:00.806Z,66.70
2019-03-09T11:08:06.397Z,66.30
2019-03-09T11:13:11.931Z,65.90
2019-03-09T11:18:17.208Z,66.10
2019-03-09T11:23:22.743Z,66.30
2019-03-09T11:28:27.928Z,65.70
2019-03-09T11:33:33.266Z,64.90
2019-03-09T11:38:39.004Z,64.90
2019-03-09T11:43:44.033Z,64.30
2019-03-09T11:48:49.042Z,64.50
2019-03-09T11:53:54.271Z,64.90
2019-03-09T11:59:00.562Z,64.70
2019-03-09T12:04:06.060Z,65.60
2019-03-09T12:09:11.633Z,65.00
2019-03-09T12:14:17.792Z,66.20
2019-03-09T12:19:23.166Z,66.30
2019-03-09T12:24:28.404Z,67.00
2019-03-09T12:29:33.766Z,66.90
2019-03-09T12:34:38.705Z,67.30
2019-03-09T12:39:43.467Z,68.00
2019-03-09T12:44:48.568Z,67.80
2019-03-09T12:49:53.715Z,67.50
2019-03-09T12:54:58.663Z,67.90
2019-03-09T13:00:05.799Z,68.40
2019-03-09T13:05:11.050Z,68.70
2019-03-09T13:10:16.224Z,68.40
2019-03-09T13:15:22.795Z,68.60
2019-03-09T13:20:28.579Z,68.80
2019-03-09T13:25:33.978Z,67.80
2019-03-09T13:30:40.078Z,68.40
2019-03-09T13:35:45.582Z,69.10
2019-03-09T13:40:50.853Z,70.30
2019-03-09T13:45:57.352Z,70.80
2019-03-09T13:51:02.779Z,71.20
2019-03-09T13:56:07.904Z,71.40
2019-03-09T14:01:12.718Z,72.10
2019-03-09T14:06:17.080Z,75.30
2019-03-09T14:11:21.390Z,80.30
2019-03-09T14:16:25.784Z,81.50
2019-03-09T14:21:30.184Z,80.40
2019-03-09T14:26:34.506Z,78.90
2019-03-09T14:31:39.222Z,79.90
2019-03-09T14:36:43.460Z,79.40
2019-03-09T14:41:48.115Z,74.70
2019-03-09T14:46:53.739Z,72.80
2019-03-09T14:51:58.575Z,65.60
2019-03-09T14:57:04.422Z,65.40
2019-03-09T15:02:09.286Z,64.80
2019-03-09T15:07:14.705Z,66.60
2019-03-09T15:12:19.984Z,66.80
2019-03-09T15:17:25.945Z,69.00
2019-03-09T15:22:31.074Z,70.70
2019-03-09T15:27:36.479Z,70.60
2019-03-09T15:32:41.900Z,69.20
2019-03-09T15:37:47.279Z,68.80
2019-03-09T15:42:52.189Z,69.70
2019-03-09T15:47:56.965Z,67.50
2019-03-09T15:53:00.330Z,66.90
2019-03-09T15:58:08.096Z,63.70
2019-03-09T16:03:13.376Z,63.30
2019-03-09T16:08:18.951Z,62.00
2019-03-09T16:13:24.468Z,61.00
2019-03-09T16:18:30.003Z,59.80
2019-03-09T16:23:35.262Z,60.20
2019-03-09T16:28:40.379Z,60.10
2019-03-09T16:33:45.427Z,60.70
2019-03-09T16:38:51.061Z,61.40
2019-03-09T16:43:57.064Z,62.90
2019-03-09T16:49:03.297Z,62.20
2019-03-09T16:54:08.503Z,62.90
2019-03-09T16:59:14.018Z,62.70
2019-03-09T17:04:19.523Z,62.50
2019-03-09T17:09:24.876Z,62.10
2019-03-09T17:14:30.036Z,61.50
2019-03-09T17:19:35.328Z,60.20
2019-03-09T17:24:38.807Z,58.20
2019-03-09T17:29:42.347Z,57.40
2019-03-09T17:34:47.328Z,53.50
2019-03-09T17:39:53.255Z,51.80
2019-03-09T17:44:58.686Z,51.50
2019-03-09T17:50:04.342Z,51.80
2019-03-09T17:55:09.989Z,52.00
2019-03-09T18:00:20.490Z,53.00
2019-03-09T18:05:25.956Z,53.50
2019-03-09T18:10:34.925Z,54.70
2019-03-09T18:15:40.408Z,54.40
2019-03-09T18:20:45.690Z,52.80
2019-03-09T18:25:52.311Z,51.30
2019-03-09T18:30:58.050Z,50.20
2019-03-09T18:36:03.004Z,51.10
2019-03-09T18:41:09.153Z,54.10
2019-03-09T18:46:14.610Z,54.50
2019-03-09T18:51:20.011Z,53.80
2019-03-09T18:56:25.214Z,52.10
2019-03-09T19:01:28.581Z,50.90
2019-03-09T19:06:33.529Z,50.50
2019-03-09T19:11:39.486Z,51.10
2019-03-09T19:16:44.941Z,51.10
2019-03-09T19:21:49.521Z,51.30
2019-03-09T19:26:54.890Z,51.50
2019-03-09T19:31:58.331Z,51.80
2019-03-09T19:37:02.678Z,51.90
2019-03-09T19:42:07.149Z,52.30
2019-03-09T19:47:10.667Z,52.10
2019-03-09T19:52:15.064Z,52.10
2019-03-09T19:57:19.500Z,52.50
2019-03-09T20:02:23.573Z,52.90
2019-03-09T20:07:26.938Z,53.10
2019-03-09T20:12:32.389Z,55.10
2019-03-09T20:17:37.284Z,56.60
